Time;durP1;ratioP1;P1;durP2;ratioP2;P2;SDS_P1;SDS_P2;PMS_P1;PMS_P2;Temp;Humidity;BMP_temperature;BMP_pressure;BME280_temperature;BME280_humidity;BME280_pressure;Samples;Min_cycle;Max_cycle;Signal;HPM_P1;HPM_P2
2023/10/15 00:00:46;;;;;;;7.43;4.47;;;10.30;99.90;;;;;;5051630;28;20025;-83
2023/10/15 00:03:12;;;;;;;7.88;4.50;;;10.20;99.90;;;;;;5051740;28;20031;-77
2023/10/15 00:05:38;;;;;;;11.07;4.50;;;10.30;99.90;;;;;;5051865;28;20063;-77
2023/10/15 00:08:04;;;;;;;11.45;4.85;;;10.30;99.90;;;;;;5051572;28;20067;-77
2023/10/15 00:10:34;;;;;;;12.90;4.97;;;10.20;99.90;;;;;;5051565;28;20067;-77
2023/10/15 00:13:00;;;;;;;16.08;5.07;;;10.20;99.90;;;;;;5051636;28;20028;-76
2023/10/15 00:15:28;;;;;;;10.68;3.85;;;10.30;99.90;;;;;;5057550;28;20363;-82
2023/10/15 00:17:58;;;;;;;7.78;3.92;;;10.30;99.90;;;;;;5051642;28;20017;-76
2023/10/15 00:20:28;;;;;;;7.93;3.78;;;10.30;99.90;;;;;;5051313;28;20036;-77
2023/10/15 00:22:54;;;;;;;7.72;3.92;;;10.30;99.90;;;;;;5053102;28;20029;-82
2023/10/15 00:25:20;;;;;;;9.40;3.90;;;10.20;99.90;;;;;;5052325;28;20104;-82
2023/10/15 00:27:54;;;;;;;6.53;3.90;;;10.20;99.90;;;;;;5051523;28;20144;-82
2023/10/15 00:30:21;;;;;;;6.63;4.10;;;10.20;99.90;;;;;;5060669;28;20032;-77
2023/10/15 00:32:49;;;;;;;7.35;3.78;;;10.20;99.90;;;;;;5051284;28;20394;-76
2023/10/15 00:35:21;;;;;;;11.95;4.72;;;10.20;99.90;;;;;;5051180;28;20029;-77
2023/10/15 00:37:57;;;;;;;5.78;4.15;;;10.20;99.90;;;;;;5051342;28;20135;-77
2023/10/15 00:40:24;;;;;;;8.50;4.63;;;10.20;99.90;;;;;;5051077;28;20021;-76
2023/10/15 00:42:51;;;;;;;8.00;3.53;;;10.20;99.90;;;;;;5051204;28;20033;-77
2023/10/15 00:45:18;;;;;;;9.65;4.45;;;10.20;99.90;;;;;;5054547;28;20479;-82
2023/10/15 00:48:02;;;;;;;7.47;3.92;;;10.20;99.90;;;;;;5051078;28;20061;-77
2023/10/15 00:50:38;;;;;;;11.27;4.22;;;10.20;99.90;;;;;;5041890;28;20075;-77
2023/10/15 00:53:21;;;;;;;9.85;4.07;;;10.20;99.90;;;;;;5051707;28;20033;-77
2023/10/15 00:55:54;;;;;;;16.23;4.00;;;10.20;99.90;;;;;;5041305;28;20038;-82
2023/10/15 01:03:59;;;;;;;7.03;3.17;;;10.10;99.90;;;;;;5051922;28;20116;-76
2023/10/15 01:06:35;;;;;;;9.63;3.83;;;10.10;99.90;;;;;;5036800;28;20029;-77
2023/10/15 01:09:08;;;;;;;7.65;4.00;;;10.10;99.90;;;;;;5058060;28;20031;-76
2023/10/15 01:11:38;;;;;;;9.20;3.25;;;10.00;99.90;;;;;;5050963;28;20017;-76
2023/10/15 01:14:04;;;;;;;7.60;3.90;;;10.00;99.90;;;;;;5052187;28;20474;-77
2023/10/15 01:16:31;;;;;;;7.95;3.78;;;9.90;99.90;;;;;;5051936;28;20029;-77
2023/10/15 01:19:16;;;;;;;6.07;3.70;;;9.90;99.90;;;;;;5061670;28;20043;-77
2023/10/15 01:22:04;;;;;;;7.63;3.92;;;9.90;99.90;;;;;;5051200;28;20406;-77
2023/10/15 01:24:33;;;;;;;8.25;3.40;;;9.90;99.90;;;;;;5044620;28;20022;-77
2023/10/15 01:27:09;;;;;;;12.45;4.03;;;9.80;99.90;;;;;;5048642;28;20058;-82
2023/10/15 01:30:00;;;;;;;6.22;3.83;;;9.90;99.90;;;;;;5050266;28;20047;-82
2023/10/15 01:32:26;;;;;;;11.23;4.15;;;9.90;99.90;;;;;;5053341;28;20033;-82
2023/10/15 01:34:53;;;;;;;6.63;3.20;;;9.90;99.90;;;;;;5046252;28;20021;-77
2023/10/15 01:39:52;;;;;;;10.57;3.20;;;9.80;99.90;;;;;;5052072;28;20048;-77
2023/10/15 01:42:42;;;;;;;9.32;3.85;;;9.70;99.90;;;;;;5052028;28;20033;-82
2023/10/15 01:48:04;;;;;;;6.35;3.72;;;9.70;99.90;;;;;;5052147;28;20110;-76
2023/10/15 01:50:34;;;;;;;11.65;3.92;;;9.50;99.90;;;;;;5055416;28;20478;-81
2023/10/15 01:53:04;;;;;;;11.48;3.58;;;9.50;99.90;;;;;;5059900;28;20021;-77
2023/10/15 01:55:30;;;;;;;8.50;3.38;;;9.40;99.90;;;;;;5054636;28;20531;-81
2023/10/15 01:58:00;;;;;;;9.60;3.20;;;9.40;99.90;;;;;;5055362;28;20433;-81
2023/10/15 02:03:06;;;;;;;9.85;4.40;;;9.30;99.90;;;;;;5053682;28;20092;-82
2023/10/15 02:05:41;;;;;;;7.72;3.30;;;9.30;99.90;;;;;;5052290;28;20045;-81
2023/10/15 02:08:16;;;;;;;9.55;3.35;;;9.30;99.90;;;;;;5055452;28;20025;-82
2023/10/15 02:10:46;;;;;;;8.38;3.83;;;9.10;99.90;;;;;;5066294;28;20049;-77
2023/10/15 02:13:15;;;;;;;10.68;3.50;;;9.10;99.90;;;;;;5053646;28;20395;-82
2023/10/15 02:15:42;;;;;;;9.98;4.00;;;9.00;99.90;;;;;;5053736;28;20079;-81
2023/10/15 02:18:13;;;;;;;9.90;3.78;;;9.00;99.90;;;;;;5058874;28;20470;-76
2023/10/15 02:20:44;;;;;;;11.13;3.08;;;9.00;99.90;;;;;;5053631;28;20467;-76
2023/10/15 02:23:15;;;;;;;7.13;3.53;;;8.90;99.90;;;;;;5054782;28;20029;-82
2023/10/15 02:25:47;;;;;;;8.10;3.42;;;8.80;99.90;;;;;;5045244;28;20078;-77
2023/10/15 02:28:17;;;;;;;8.48;3.90;;;8.80;99.90;;;;;;5053278;28;20032;-76
2023/10/15 02:30:46;;;;;;;15.15;4.00;;;8.70;99.90;;;;;;5054823;28;20040;-77
2023/10/15 02:33:17;;;;;;;10.57;3.58;;;8.70;99.90;;;;;;5053583;28;20021;-76
2023/10/15 02:35:45;;;;;;;8.82;3.75;;;8.70;99.90;;;;;;5053398;28;20021;-76
2023/10/15 02:38:12;;;;;;;7.55;3.45;;;8.70;99.90;;;;;;5053156;28;20392;-82
2023/10/15 02:43:26;;;;;;;8.25;3.05;;;8.60;99.90;;;;;;5060121;28;20094;-81
2023/10/15 02:45:52;;;;;;;9.98;3.10;;;8.50;99.90;;;;;;5054141;28;20068;-76
2023/10/15 02:48:22;;;;;;;12.40;3.50;;;8.50;99.90;;;;;;5055989;28;20453;-77
2023/10/15 02:51:00;;;;;;;9.27;3.72;;;8.40;99.90;;;;;;5054961;28;20024;-81
2023/10/15 02:53:28;;;;;;;7.45;2.78;;;8.50;99.90;;;;;;5055904;28;20104;-81
2023/10/15 02:55:58;;;;;;;9.50;3.33;;;8.50;99.90;;;;;;5054675;28;20100;-76
2023/10/15 02:58:28;;;;;;;11.75;3.20;;;8.50;99.90;;;;;;5053141;28;20505;-81
2023/10/15 03:00:59;;;;;;;11.05;3.40;;;8.50;99.90;;;;;;5058554;28;20498;-81
2023/10/15 03:03:33;;;;;;;6.80;3.13;;;8.40;99.90;;;;;;5053151;28;20031;-82
2023/10/15 03:06:02;;;;;;;6.75;3.58;;;8.40;99.90;;;;;;5048571;28;20028;-82
2023/10/15 03:08:32;;;;;;;10.80;3.90;;;8.40;99.90;;;;;;5053641;28;20021;-76
2023/10/15 03:11:12;;;;;;;6.43;3.25;;;8.40;99.90;;;;;;5052877;28;20100;-81
2023/10/15 03:13:50;;;;;;;10.45;3.63;;;8.30;99.90;;;;;;5046985;28;20033;-76
2023/10/15 03:16:35;;;;;;;5.25;3.03;;;8.30;99.90;;;;;;5054278;28;20061;-77
2023/10/15 03:19:17;;;;;;;14.77;3.53;;;8.30;99.90;;;;;;5056842;28;20025;-77
2023/10/15 03:21:43;;;;;;;8.07;3.05;;;8.30;99.90;;;;;;5053635;28;20025;-77
2023/10/15 03:24:09;;;;;;;12.35;3.10;;;8.30;99.90;;;;;;5054067;28;20017;-77
2023/10/15 03:26:36;;;;;;;9.00;3.30;;;8.20;99.90;;;;;;5052307;28;20021;-77
2023/10/15 03:29:08;;;;;;;9.60;3.10;;;8.20;99.90;;;;;;5063985;28;20025;-82
2023/10/15 03:31:36;;;;;;;12.77;3.60;;;8.20;99.90;;;;;;5052282;28;20013;-82
2023/10/15 03:36:43;;;;;;;7.13;3.28;;;8.10;99.90;;;;;;5053554;28;20021;-77
2023/10/15 03:39:25;;;;;;;8.57;2.80;;;8.10;99.90;;;;;;5055883;28;20538;-77
2023/10/15 03:44:44;;;;;;;5.20;2.65;;;8.00;99.90;;;;;;5053592;28;20028;-82
2023/10/15 03:47:15;;;;;;;12.50;3.17;;;7.90;99.90;;;;;;5050591;28;20045;-82
2023/10/15 03:49:44;;;;;;;7.68;3.75;;;7.90;99.90;;;;;;5051243;28;20470;-82
2023/10/15 03:52:14;;;;;;;7.72;3.13;;;7.90;99.90;;;;;;5056446;28;20163;-82
2023/10/15 03:54:42;;;;;;;11.10;3.58;;;7.80;99.90;;;;;;5056284;28;20052;-77
2023/10/15 03:57:09;;;;;;;6.85;2.90;;;7.70;99.90;;;;;;5053480;28;20387;-82
2023/10/15 03:59:44;;;;;;;8.07;4.32;;;7.60;99.90;;;;;;5052184;28;20434;-77
2023/10/15 04:02:23;;;;;;;11.20;2.92;;;7.50;99.90;;;;;;5049578;28;20043;-77
2023/10/15 04:05:08;;;;;;;10.75;2.95;;;7.40;99.90;;;;;;5053259;28;20108;-81
2023/10/15 04:07:39;;;;;;;10.13;3.03;;;7.40;99.90;;;;;;5051472;28;20101;-82
2023/10/15 04:10:08;;;;;;;7.60;3.30;;;7.30;99.90;;;;;;5050108;28;20017;-82
2023/10/15 04:12:35;;;;;;;9.95;3.25;;;7.40;99.90;;;;;;5051899;28;20467;-76
2023/10/15 04:15:03;;;;;;;10.13;2.97;;;7.30;99.90;;;;;;5051748;28;20031;-76
2023/10/15 04:17:29;;;;;;;7.70;2.53;;;7.30;99.90;;;;;;5053116;28;20105;-76
2023/10/15 04:19:55;;;;;;;9.18;3.05;;;7.20;99.90;;;;;;5051351;28;20048;-82
2023/10/15 04:22:21;;;;;;;5.47;2.65;;;7.10;99.90;;;;;;5042011;28;20459;-76
2023/10/15 04:24:47;;;;;;;6.05;2.80;;;7.10;99.90;;;;;;5050994;28;20108;-81
2023/10/15 04:27:16;;;;;;;7.50;2.78;;;7.10;99.90;;;;;;5051343;28;20481;-82
2023/10/15 04:29:51;;;;;;;8.40;3.15;;;7.10;99.90;;;;;;5051365;28;20029;-77
2023/10/15 04:32:23;;;;;;;8.38;2.40;;;7.00;99.90;;;;;;5041838;28;20090;-76
2023/10/15 04:34:52;;;;;;;;;;;7.00;99.90;;;;;;5051053;28;20017;-76
2023/10/15 04:37:20;;;;;;;5.15;3.38;;;6.90;99.90;;;;;;5050391;28;19999;-77
2023/10/15 04:39:54;;;;;;;4.90;2.97;;;6.90;99.90;;;;;;5051125;28;20017;-76
2023/10/15 04:42:23;;;;;;;8.00;3.25;;;6.90;99.90;;;;;;5051105;28;20033;-77
2023/10/15 04:44:53;;;;;;;7.47;3.20;;;6.80;99.90;;;;;;5053468;28;20017;-82
2023/10/15 04:47:27;;;;;;;6.80;3.30;;;6.80;99.90;;;;;;5057239;28;20065;-83
2023/10/15 04:49:57;;;;;;;10.45;3.10;;;6.70;99.90;;;;;;5052724;28;20017;-82
2023/10/15 04:52:24;;;;;;;4.85;2.63;;;6.60;99.90;;;;;;5053771;28;20020;-82
2023/10/15 04:54:51;;;;;;;6.05;2.75;;;6.50;99.90;;;;;;5049132;28;20061;-77
2023/10/15 04:57:16;;;;;;;8.15;2.75;;;6.50;99.90;;;;;;5045042;28;20017;-77
2023/10/15 04:59:42;;;;;;;5.05;2.70;;;6.50;99.90;;;;;;5045593;28;20078;-77
2023/10/15 05:02:08;;;;;;;6.88;2.65;;;6.40;99.90;;;;;;5049806;28;20124;-77
2023/10/15 05:04:34;;;;;;;3.97;2.25;;;6.40;99.90;;;;;;5037230;28;20025;-77
2023/10/15 05:07:00;;;;;;;7.65;2.80;;;6.30;99.90;;;;;;5043135;28;20029;-83
2023/10/15 05:09:31;;;;;;;8.55;2.90;;;6.30;99.90;;;;;;5044715;28;20487;-77
2023/10/15 05:11:58;;;;;;;5.45;2.72;;;6.30;99.90;;;;;;5051205;28;20013;-78
2023/10/15 05:14:24;;;;;;;7.10;2.80;;;6.40;99.90;;;;;;5052243;28;20033;-77
2023/10/15 05:16:49;;;;;;;8.95;3.28;;;6.30;99.90;;;;;;5051098;28;20490;-81
2023/10/15 05:19:19;;;;;;;6.05;2.17;;;6.40;99.90;;;;;;5050688;28;20054;-81
2023/10/15 05:21:46;;;;;;;7.95;2.95;;;6.40;99.90;;;;;;5045180;28;20068;-77
2023/10/15 05:24:18;;;;;;;8.27;2.65;;;6.40;99.90;;;;;;5051450;28;20021;-78
2023/10/15 05:26:50;;;;;;;5.25;2.80;;;6.40;99.90;;;;;;5050390;28;20033;-78
2023/10/15 05:29:16;;;;;;;4.90;2.57;;;6.30;99.90;;;;;;5054313;28;20028;-83
2023/10/15 05:31:44;;;;;;;7.63;3.35;;;6.20;99.90;;;;;;5055989;28;20021;-77
2023/10/15 05:34:10;;;;;;;7.10;2.85;;;6.20;99.90;;;;;;5061831;28;20029;-77
2023/10/15 05:36:36;;;;;;;9.50;3.40;;;6.20;99.90;;;;;;5041164;28;20360;-82
2023/10/15 05:39:04;;;;;;;6.97;3.60;;;6.20;99.90;;;;;;5039355;28;20025;-77
2023/10/15 05:41:34;;;;;;;4.57;2.60;;;6.20;99.90;;;;;;5050940;28;20517;-77
2023/10/15 05:44:00;;;;;;;4.00;2.53;;;6.20;99.90;;;;;;5037803;28;20025;-77
2023/10/15 05:46:27;;;;;;;8.00;2.55;;;6.10;99.90;;;;;;5049934;28;20032;-77
2023/10/15 05:48:55;;;;;;;7.07;2.85;;;6.10;99.90;;;;;;5042852;28;20108;-80
2023/10/15 05:51:21;;;;;;;5.93;2.25;;;6.10;99.90;;;;;;5052181;28;20048;-77
2023/10/15 05:53:47;;;;;;;7.25;3.17;;;6.10;99.90;;;;;;5043894;28;20475;-76
2023/10/15 05:56:13;;;;;;;7.55;2.63;;;6.20;99.90;;;;;;5049777;28;20083;-76
2023/10/15 05:58:39;;;;;;;12.02;2.90;;;6.20;99.90;;;;;;5044550;28;20018;-76
2023/10/15 06:01:05;;;;;;;6.38;2.92;;;6.30;99.90;;;;;;5047032;28;20037;-77
2023/10/15 06:03:31;;;;;;;9.18;2.83;;;6.30;99.90;;;;;;5043633;28;20389;-77
2023/10/15 06:05:57;;;;;;;9.40;2.67;;;6.40;99.90;;;;;;5042726;28;20570;-76
2023/10/15 06:08:23;;;;;;;7.00;3.28;;;6.40;99.90;;;;;;5054972;28;20056;-76
2023/10/15 06:10:49;;;;;;;9.82;2.40;;;6.50;99.90;;;;;;5054995;28;20033;-76
2023/10/15 06:13:15;;;;;;;5.60;2.80;;;6.60;99.90;;;;;;5055826;28;20028;-76
2023/10/15 06:15:40;;;;;;;7.43;2.67;;;6.70;99.90;;;;;;5053829;28;20095;-76
2023/10/15 06:18:06;;;;;;;9.75;2.35;;;6.80;99.90;;;;;;5037057;28;20101;-81
2023/10/15 06:20:32;;;;;;;9.68;3.13;;;6.90;99.90;;;;;;5053230;28;20023;-82
2023/10/15 06:23:00;;;;;;;6.15;3.15;;;7.00;99.90;;;;;;5055991;28;20540;-78
2023/10/15 06:25:26;;;;;;;7.10;2.17;;;7.10;99.90;;;;;;5053256;28;20017;-77
2023/10/15 06:27:52;;;;;;;7.60;2.55;;;7.20;99.90;;;;;;5054756;28;20036;-77
2023/10/15 06:30:17;;;;;;;2.60;2.28;;;7.30;99.90;;;;;;5046376;28;20037;-77
2023/10/15 06:32:48;;;;;;;8.43;1.90;;;7.30;99.90;;;;;;5036632;28;20021;-76
2023/10/15 06:35:20;;;;;;;7.18;2.05;;;7.40;99.90;;;;;;5053102;28;20498;-76
2023/10/15 06:37:47;;;;;;;6.20;1.90;;;7.50;99.90;;;;;;5042052;28;20108;-76
2023/10/15 06:40:14;;;;;;;6.15;2.50;;;7.60;99.90;;;;;;5038684;28;20026;-76
2023/10/15 06:42:40;;;;;;;5.88;1.92;;;7.60;99.90;;;;;;5053024;28;20533;-76
2023/10/15 06:45:06;;;;;;;6.40;2.25;;;7.70;99.90;;;;;;5054519;28;20021;-76
2023/10/15 06:47:36;;;;;;;7.10;1.73;;;7.80;99.90;;;;;;5052872;28;20049;-82
2023/10/15 06:50:07;;;;;;;5.93;2.22;;;7.90;99.90;;;;;;5046790;28;20037;-81
2023/10/15 06:52:38;;;;;;;5.65;2.13;;;8.00;99.90;;;;;;5052771;28;20459;-81
2023/10/15 06:55:08;;;;;;;7.15;2.20;;;8.00;99.90;;;;;;5049483;28;20032;-81
2023/10/15 06:57:38;;;;;;;8.23;2.42;;;8.00;99.90;;;;;;5049002;28;20537;-81
2023/10/15 07:00:08;;;;;;;9.73;2.13;;;8.00;99.90;;;;;;5042824;28;20371;-77
2023/10/15 07:02:34;;;;;;;5.57;1.83;;;8.10;99.90;;;;;;5048105;28;20063;-76
2023/10/15 07:05:01;;;;;;;5.22;1.63;;;8.10;99.90;;;;;;5047690;28;20037;-76
2023/10/15 07:07:27;;;;;;;6.25;2.03;;;8.10;99.90;;;;;;5049977;28;20028;-77
2023/10/15 07:09:53;;;;;;;5.70;2.03;;;8.20;99.90;;;;;;5049281;28;20017;-76
2023/10/15 07:12:20;;;;;;;5.55;1.60;;;8.20;99.90;;;;;;5053042;28;20029;-77
2023/10/15 07:14:46;;;;;;;6.53;1.95;;;8.20;99.90;;;;;;5048374;28;20025;-77
2023/10/15 07:17:12;;;;;;;5.57;2.20;;;8.20;99.90;;;;;;5048620;28;20021;-76
2023/10/15 07:19:38;;;;;;;6.70;2.00;;;8.30;99.90;;;;;;5049847;28;20367;-76
2023/10/15 07:22:04;;;;;;;5.07;1.60;;;8.30;99.90;;;;;;5049046;28;20044;-75
2023/10/15 07:24:31;;;;;;;8.50;1.90;;;8.40;99.90;;;;;;5053190;28;20025;-76
2023/10/15 07:26:57;;;;;;;4.70;2.78;;;8.40;99.90;;;;;;5056048;28;20029;-75
2023/10/15 07:29:24;;;;;;;6.65;2.40;;;8.50;99.90;;;;;;5036010;28;20017;-76
2023/10/15 07:31:51;;;;;;;4.43;1.52;;;8.50;99.90;;;;;;5038557;28;20539;-83
2023/10/15 07:34:19;;;;;;;7.00;2.35;;;8.60;99.90;;;;;;5046831;28;20037;-76
2023/10/15 07:36:45;;;;;;;4.40;1.90;;;8.60;99.90;;;;;;5049697;28;20017;-81
2023/10/15 07:39:11;;;;;;;8.07;2.08;;;8.70;99.90;;;;;;5050222;28;20025;-77
2023/10/15 07:41:37;;;;;;;3.97;1.50;;;8.80;99.90;;;;;;5050113;28;20534;-76
2023/10/15 07:44:03;;;;;;;6.93;1.80;;;8.90;99.90;;;;;;5046836;28;20139;-76
2023/10/15 07:46:30;;;;;;;5.80;1.65;;;9.00;99.90;;;;;;5051452;28;20025;-82
2023/10/15 07:48:59;;;;;;;8.55;1.65;;;9.00;99.90;;;;;;5051452;28;20029;-76
2023/10/15 07:51:27;;;;;;;7.78;1.58;;;9.00;99.90;;;;;;5046664;28;20372;-76
2023/10/15 07:53:53;;;;;;;5.28;2.00;;;9.10;99.90;;;;;;5036642;28;20033;-76
2023/10/15 07:56:18;;;;;;;8.88;2.15;;;9.00;99.90;;;;;;5044683;28;20099;-76
2023/10/15 07:58:44;;;;;;;5.13;1.85;;;8.90;97.00;;;;;;5046810;28;20017;-76
2023/10/15 08:01:11;;;;;;;3.83;1.73;;;9.00;98.10;;;;;;5045692;28;20085;-75
2023/10/15 08:03:36;;;;;;;7.93;1.83;;;9.00;95.30;;;;;;5051384;28;20055;-75
2023/10/15 08:06:02;;;;;;;5.25;1.98;;;9.10;93.60;;;;;;5049129;28;20033;-75
2023/10/15 08:08:28;;;;;;;5.93;1.77;;;9.20;92.80;;;;;;5046880;28;20116;-76
2023/10/15 08:10:56;;;;;;;6.55;1.75;;;9.30;93.70;;;;;;5049260;28;20025;-76
2023/10/15 08:13:22;;;;;;;7.78;1.60;;;9.20;88.30;;;;;;5054018;28;20025;-76
2023/10/15 08:15:47;;;;;;;12.98;1.98;;;9.30;88.60;;;;;;5052875;28;20091;-76
2023/10/15 08:18:13;;;;;;;10.40;1.80;;;9.40;87.30;;;;;;5051270;28;20475;-76
2023/10/15 08:20:39;;;;;;;8.60;1.85;;;9.40;86.30;;;;;;5048638;28;20016;-74
2023/10/15 08:23:05;;;;;;;4.10;1.63;;;9.30;86.50;;;;;;5049331;28;20490;-76
2023/10/15 08:25:34;;;;;;;7.75;1.65;;;9.40;86.60;;;;;;5049893;28;20138;-75
2023/10/15 08:28:00;;;;;;;11.00;3.42;;;9.40;84.20;;;;;;5051705;28;20463;-75
2023/10/15 08:30:26;;;;;;;3.85;1.63;;;9.40;82.00;;;;;;5050648;28;20021;-75
2023/10/15 08:32:52;;;;;;;5.90;1.73;;;9.20;82.90;;;;;;5045511;28;20028;-76
2023/10/15 08:35:18;;;;;;;5.97;1.95;;;9.10;83.00;;;;;;5050540;28;20017;-75
2023/10/15 08:37:45;;;;;;;5.70;2.28;;;9.00;87.20;;;;;;5051757;28;20108;-81
2023/10/15 08:40:18;;;;;;;9.02;1.90;;;9.00;86.30;;;;;;5052633;28;20025;-81
2023/10/15 08:43:01;;;;;;;7.03;2.17;;;8.90;86.40;;;;;;5050913;28;20057;-81
2023/10/15 08:45:28;;;;;;;7.22;2.25;;;9.00;84.90;;;;;;5051650;28;20021;-81
2023/10/15 08:47:55;;;;;;;6.93;1.95;;;8.80;84.80;;;;;;5049398;28;20052;-81
2023/10/15 08:50:22;;;;;;;9.27;1.85;;;8.90;85.60;;;;;;5050903;28;20025;-81
2023/10/15 08:52:52;;;;;;;5.95;2.33;;;9.00;85.60;;;;;;5046696;28;20010;-81
2023/10/15 08:55:22;;;;;;;3.42;1.50;;;9.00;86.00;;;;;;5047462;28;20017;-80
2023/10/15 08:57:54;;;;;;;8.18;1.88;;;9.10;85.40;;;;;;5052174;28;20028;-81
2023/10/15 09:00:31;;;;;;;9.73;2.55;;;9.10;86.80;;;;;;5050490;28;20021;-81
2023/10/15 09:02:57;;;;;;;5.57;1.58;;;9.20;85.30;;;;;;5052028;28;20037;-82
2023/10/15 09:05:23;;;;;;;6.65;2.10;;;9.20;81.00;;;;;;5056945;28;20071;-82
2023/10/15 09:07:52;;;;;;;6.53;2.00;;;9.40;83.70;;;;;;5054334;28;20021;-82
2023/10/15 09:10:17;;;;;;;10.10;2.63;;;9.50;81.80;;;;;;5054431;28;20028;-81
2023/10/15 09:12:43;;;;;;;7.68;2.13;;;9.50;77.90;;;;;;5055538;28;20016;-82
2023/10/15 09:15:19;;;;;;;4.60;1.77;;;9.60;78.40;;;;;;5055553;28;20540;-82
2023/10/15 09:17:58;;;;;;;5.78;1.80;;;9.60;79.40;;;;;;5054719;28;20075;-83
2023/10/15 09:20:27;;;;;;;9.27;1.70;;;9.40;76.00;;;;;;5052778;28;20028;-84
2023/10/15 09:22:58;;;;;;;6.18;1.70;;;9.30;76.50;;;;;;5056952;28;20033;-83
2023/10/15 09:25:25;;;;;;;6.47;1.52;;;9.30;76.50;;;;;;5043292;28;20017;-83
2023/10/15 09:27:53;;;;;;;5.95;1.90;;;9.20;75.40;;;;;;5050787;28;20087;-82
2023/10/15 09:30:27;;;;;;;7.15;2.05;;;9.40;77.80;;;;;;5049040;28;20047;-82
2023/10/15 09:32:54;;;;;;;6.95;1.52;;;9.50;78.20;;;;;;5053055;28;20057;-76
2023/10/15 09:35:21;;;;;;;5.95;1.63;;;9.40;74.60;;;;;;5053975;28;20348;-75
2023/10/15 09:37:46;;;;;;;8.27;1.98;;;9.60;76.80;;;;;;5052449;28;20395;-80
2023/10/15 09:40:19;;;;;;;7.13;1.52;;;9.70;76.30;;;;;;5050715;28;20039;-82
2023/10/15 09:42:49;;;;;;;5.18;1.70;;;9.70;76.60;;;;;;5051597;28;20021;-82
2023/10/15 09:45:18;;;;;;;5.40;1.80;;;9.70;74.50;;;;;;5050311;28;20725;-76
2023/10/15 09:48:00;;;;;;;4.85;1.98;;;9.80;72.60;;;;;;5044932;28;20454;-82
2023/10/15 09:50:32;;;;;;;5.28;1.77;;;10.00;75.20;;;;;;5035480;28;20045;-82
2023/10/15 09:53:01;;;;;;;5.60;1.30;;;10.10;73.70;;;;;;5045648;28;20107;-81
2023/10/15 09:55:31;;;;;;;6.20;1.60;;;10.20;73.50;;;;;;5043677;28;20029;-82
2023/10/15 09:58:10;;;;;;;4.25;1.38;;;10.20;70.50;;;;;;5055281;28;20021;-81
2023/10/15 10:00:47;;;;;;;6.38;1.95;;;10.10;69.50;;;;;;5049983;28;20094;-80
2023/10/15 10:03:26;;;;;;;5.88;1.88;;;10.10;69.50;;;;;;5043412;28;20424;-75
2023/10/15 10:06:14;;;;;;;4.28;2.20;;;10.20;70.00;;;;;;5046810;28;20064;-76
2023/10/15 10:08:49;;;;;;;6.53;1.40;;;10.20;70.30;;;;;;5049957;28;20025;-77
2023/10/15 10:11:45;;;;;;;6.72;1.60;;;10.20;69.10;;;;;;5052909;28;20029;-77
2023/10/15 10:14:23;;;;;;;5.10;1.75;;;10.10;67.70;;;;;;5052172;28;20660;-81
2023/10/15 10:16:49;;;;;;;7.28;1.70;;;10.20;69.20;;;;;;5044925;28;20025;-83
2023/10/15 10:19:17;;;;;;;6.68;1.75;;;10.20;70.00;;;;;;5045688;28;20442;-83
2023/10/15 10:21:47;;;;;;;5.85;1.70;;;10.10;71.20;;;;;;5041503;28;20494;-83
2023/10/15 10:24:16;;;;;;;5.15;2.10;;;10.00;70.80;;;;;;5045831;28;20021;-82
2023/10/15 10:26:42;;;;;;;5.38;1.40;;;10.10;71.10;;;;;;5046706;28;20076;-77
2023/10/15 10:29:11;;;;;;;7.38;2.38;;;9.90;69.10;;;;;;5038829;28;20549;-77
2023/10/15 10:31:39;;;;;;;8.18;1.70;;;9.90;69.20;;;;;;5050989;28;20021;-77
2023/10/15 10:34:05;;;;;;;7.00;1.60;;;9.80;67.60;;;;;;5049481;28;20029;-77
2023/10/15 10:36:37;;;;;;;7.05;1.60;;;9.80;68.20;;;;;;5045776;28;20026;-77
2023/10/15 10:39:07;;;;;;;5.72;1.98;;;9.80;67.60;;;;;;5040663;28;20025;-83
2023/10/15 10:41:40;;;;;;;8.77;1.83;;;9.80;67.30;;;;;;5056060;28;20036;-83
2023/10/15 10:44:12;;;;;;;5.88;1.70;;;10.00;68.50;;;;;;5050613;28;20472;-83
2023/10/15 10:46:43;;;;;;;4.50;2.07;;;10.00;67.20;;;;;;5046786;28;20394;-77
2023/10/15 10:49:13;;;;;;;6.18;1.50;;;10.00;66.80;;;;;;5047765;28;20021;-77
2023/10/15 10:51:43;;;;;;;9.43;1.88;;;9.90;67.00;;;;;;5046380;28;20112;-83
2023/10/15 10:54:08;;;;;;;10.65;1.60;;;10.00;67.00;;;;;;5055794;28;20479;-82
2023/10/15 10:56:40;;;;;;;7.10;1.85;;;10.20;68.90;;;;;;5038851;28;20099;-82
2023/10/15 10:59:06;;;;;;;5.65;2.05;;;10.40;68.90;;;;;;5058881;28;20032;-83
2023/10/15 11:01:39;;;;;;;5.80;1.60;;;10.60;69.30;;;;;;5052273;28;20433;-82
2023/10/15 11:04:05;;;;;;;;;;;10.40;65.60;;;;;;5050826;28;20025;-81
2023/10/15 11:06:33;;;;;;;7.10;1.55;;;10.50;64.20;;;;;;5053917;28;20328;-81
2023/10/15 11:09:00;;;;;;;8.07;1.73;;;10.40;63.50;;;;;;5052342;28;20027;-81
2023/10/15 11:11:26;;;;;;;8.57;1.67;;;10.30;61.90;;;;;;5059088;28;20100;-81
2023/10/15 11:13:54;;;;;;;4.72;1.20;;;10.20;62.40;;;;;;5049539;28;20527;-81
2023/10/15 11:16:21;;;;;;;3.83;1.75;;;10.00;61.50;;;;;;5051847;28;20146;-81
2023/10/15 11:18:47;;;;;;;3.90;1.77;;;10.00;63.10;;;;;;5052001;28;20509;-80
2023/10/15 11:21:13;;;;;;;4.80;1.58;;;10.00;63.00;;;;;;5051839;28;20044;-81
2023/10/15 11:23:39;;;;;;;10.85;1.60;;;10.10;61.70;;;;;;5053189;28;20021;-82
2023/10/15 11:26:08;;;;;;;4.70;1.52;;;10.20;62.00;;;;;;5040729;28;20103;-83
2023/10/15 11:28:34;;;;;;;6.03;2.30;;;10.30;61.70;;;;;;5049879;28;20040;-82
2023/10/15 11:31:04;;;;;;;4.75;1.45;;;10.30;60.90;;;;;;5042533;28;20037;-84
2023/10/15 11:33:29;;;;;;;12.20;2.17;;;10.30;61.30;;;;;;5048367;28;20546;-83
2023/10/15 11:35:55;;;;;;;10.48;1.65;;;10.30;61.60;;;;;;5043266;28;20120;-83
2023/10/15 11:38:31;;;;;;;5.90;1.42;;;10.30;62.20;;;;;;5044499;28;20493;-83
2023/10/15 11:40:57;;;;;;;4.38;2.00;;;10.10;62.20;;;;;;5036482;28;20037;-83
2023/10/15 11:43:22;;;;;;;1.95;1.65;;;10.00;62.30;;;;;;5049941;28;20039;-83
2023/10/15 11:45:49;;;;;;;5.28;2.00;;;9.90;62.00;;;;;;5050950;28;20036;-83
2023/10/15 11:48:21;;;;;;;5.28;1.77;;;10.00;62.10;;;;;;5046118;28;20496;-83
2023/10/15 11:50:48;;;;;;;5.20;1.60;;;10.10;62.80;;;;;;5050725;28;20029;-83
2023/10/15 11:53:20;;;;;;;7.35;2.60;;;10.30;62.80;;;;;;5048680;28;20283;-84
2023/10/15 11:55:52;;;;;;;6.03;1.77;;;10.40;61.80;;;;;;5049967;28;20021;-83
2023/10/15 11:58:30;;;;;;;3.28;1.40;;;10.50;61.70;;;;;;5040231;28;20029;-83
2023/10/15 12:00:58;;;;;;;4.55;1.52;;;10.60;62.90;;;;;;5043895;28;20044;-83
2023/10/15 12:03:24;;;;;;;5.80;1.58;;;10.70;62.90;;;;;;5048313;28;20041;-83
2023/10/15 12:05:51;;;;;;;5.53;1.70;;;10.80;63.80;;;;;;5047146;28;20089;-83
2023/10/15 12:08:21;;;;;;;8.07;2.08;;;10.70;63.00;;;;;;5046980;28;20024;-83
2023/10/15 12:10:47;;;;;;;6.28;2.08;;;10.80;63.30;;;;;;5049926;28;20033;-83
2023/10/15 12:13:16;;;;;;;3.05;1.60;;;10.70;63.30;;;;;;5050602;28;20033;-83
2023/10/15 12:15:42;;;;;;;5.18;1.42;;;10.60;63.70;;;;;;5045792;28;20032;-83
2023/10/15 12:18:09;;;;;;;5.78;1.67;;;10.60;61.70;;;;;;5056020;28;20025;-83
2023/10/15 12:20:35;;;;;;;11.60;2.33;;;10.60;62.40;;;;;;5044323;28;20036;-83
2023/10/15 12:23:00;;;;;;;6.50;1.90;;;10.60;62.70;;;;;;5050279;28;20387;-84
2023/10/15 12:25:27;;;;;;;7.07;2.58;;;10.50;62.00;;;;;;5045082;28;20044;-83
2023/10/15 12:27:52;;;;;;;7.32;1.20;;;10.50;62.70;;;;;;5047951;28;20100;-83
2023/10/15 12:30:27;;;;;;;2.25;1.48;;;10.50;63.00;;;;;;5049829;28;20036;-83
2023/10/15 12:32:58;;;;;;;3.78;1.60;;;10.50;62.80;;;;;;5045359;28;20032;-83
2023/10/15 12:35:29;;;;;;;5.05;1.30;;;10.60;64.00;;;;;;5051367;28;20021;-84
2023/10/15 12:38:01;;;;;;;4.40;1.63;;;10.40;63.50;;;;;;5050522;28;20017;-83
2023/10/15 12:40:34;;;;;;;4.43;1.70;;;10.30;63.50;;;;;;5041375;28;20490;-83
2023/10/15 12:43:01;;;;;;;5.18;1.67;;;10.20;61.80;;;;;;5049652;28;20036;-84
2023/10/15 12:45:27;;;;;;;5.00;1.50;;;10.20;63.00;;;;;;5052328;28;20020;-84
2023/10/15 12:47:53;;;;;;;4.25;1.50;;;10.20;63.10;;;;;;5052282;28;20482;-82
2023/10/15 12:50:19;;;;;;;4.43;1.85;;;10.20;61.80;;;;;;5052154;28;20031;-83
2023/10/15 12:52:46;;;;;;;5.20;1.55;;;10.10;61.90;;;;;;5052180;28;20071;-83
2023/10/15 12:55:15;;;;;;;6.07;2.10;;;10.10;62.50;;;;;;5050057;28;20017;-83
2023/10/15 12:57:41;;;;;;;5.00;1.60;;;10.00;62.00;;;;;;5050332;28;20025;-77
2023/10/15 13:00:26;;;;;;;6.43;1.95;;;10.10;63.30;;;;;;5046093;28;20017;-77
2023/10/15 13:02:53;;;;;;;3.65;2.00;;;10.00;63.40;;;;;;5055932;28;20029;-77
2023/10/15 13:05:21;;;;;;;6.03;2.67;;;10.10;64.30;;;;;;5046170;28;20120;-77
2023/10/15 13:07:49;;;;;;;6.63;1.30;;;10.10;65.00;;;;;;5038305;28;20022;-77
2023/10/15 13:10:17;;;;;;;4.38;1.48;;;10.00;65.00;;;;;;5050014;28;20482;-77
2023/10/15 13:12:47;;;;;;;8.40;2.33;;;9.90;64.60;;;;;;5040540;28;20386;-78
2023/10/15 13:15:19;;;;;;;5.78;1.63;;;9.80;64.20;;;;;;5037525;28;20406;-77
2023/10/15 13:17:49;;;;;;;5.65;1.40;;;9.80;64.50;;;;;;5051771;28;20028;-78
2023/10/15 13:20:17;;;;;;;3.67;1.65;;;9.80;65.80;;;;;;5050886;28;20444;-78
2023/10/15 13:22:44;;;;;;;4.13;2.10;;;9.70;65.70;;;;;;5049126;28;20037;-77
2023/10/15 13:25:11;;;;;;;3.83;1.60;;;9.70;65.80;;;;;;5050440;28;20057;-77